Time;durP1;ratioP1;P1;durP2;ratioP2;P2;SDS_P1;SDS_P2;PMS_P1;PMS_P2;Temp;Humidity;BMP_temperature;BMP_pressure;BME280_temperature;BME280_humidity;BME280_pressure;Samples;Min_cycle;Max_cycle;Signal;HPM_P1;HPM_P2
2022/11/22 00:00:16;;;;;;;23.10;9.70;;;;;;;11.39;100.00;98959.28;4986916;28;20038;-58
2022/11/22 00:02:42;;;;;;;25.10;10.02;;;;;;;12.48;100.00;98956.78;4985809;28;20039;-58
2022/11/22 00:05:09;;;;;;;25.58;10.43;;;;;;;11.94;100.00;98962.91;4983723;28;20061;-60
2022/11/22 00:07:36;;;;;;;23.65;11.57;;;;;;;11.54;100.00;98950.63;4984299;28;20030;-59
2022/11/22 00:10:07;;;;;;;25.73;11.45;;;;;;;10.71;100.00;98950.25;4979528;28;20039;-60
2022/11/22 00:12:33;;;;;;;26.38;10.30;;;;;;;10.83;100.00;98952.03;4985797;28;20042;-58
2022/11/22 00:14:59;;;;;;;25.55;8.77;;;;;;;10.80;100.00;98953.34;4983487;28;20035;-60
2022/11/22 00:17:24;;;;;;;22.73;9.43;;;;;;;10.82;100.00;98950.41;4992151;28;20062;-58
2022/11/22 00:19:50;;;;;;;27.30;10.03;;;;;;;11.00;100.00;98954.72;4988105;28;20030;-58
2022/11/22 00:22:16;;;;;;;26.20;9.75;;;;;;;11.68;100.00;98951.91;4990387;28;20277;-57
2022/11/22 00:24:43;;;;;;;27.13;9.70;;;;;;;11.68;100.00;98948.41;4984218;28;20027;-60
2022/11/22 00:27:09;;;;;;;27.38;10.13;;;;;;;10.82;100.00;98945.06;4986558;28;20277;-60
2022/11/22 00:29:34;;;;;;;24.27;9.17;;;;;;;12.75;100.00;98945.22;4986334;28;20035;-59
2022/11/22 00:32:00;;;;;;;21.90;10.03;;;;;;;12.25;100.00;98944.50;4986305;28;20053;-59
2022/11/22 00:34:25;;;;;;;33.80;12.37;;;;;;;13.22;100.00;98950.91;4987228;28;20290;-59
2022/11/22 00:36:50;;;;;;;25.77;13.77;;;;;;;12.81;100.00;98945.25;4979831;28;20043;-59
2022/11/22 00:39:16;;;;;;;23.90;10.77;;;;;;;12.22;100.00;98939.66;4981033;28;20035;-58
2022/11/22 00:41:42;;;;;;;23.53;10.77;;;;;;;13.37;100.00;98949.34;4984104;28;20046;-60
2022/11/22 00:44:07;;;;;;;24.90;11.47;;;;;;;12.43;100.00;98955.94;4981335;28;20050;-58
2022/11/22 00:46:33;;;;;;;26.67;10.60;;;;;;;13.26;100.00;98933.22;4984346;28;20039;-57
2022/11/22 00:48:58;;;;;;;21.33;9.83;;;;;;;13.31;100.00;98943.97;4988086;28;20191;-58
2022/11/22 00:51:24;;;;;;;25.47;10.63;;;;;;;13.09;100.00;98945.97;4986123;28;20031;-59
2022/11/22 00:53:49;;;;;;;23.17;10.97;;;;;;;13.14;100.00;98959.41;4987533;28;20276;-60
2022/11/22 00:56:15;;;;;;;29.13;11.30;;;;;;;12.76;100.00;98968.28;4988675;28;20060;-59
2022/11/22 00:58:40;;;;;;;26.33;11.07;;;;;;;12.81;100.00;98953.31;4989863;28;20272;-60
2022/11/22 01:01:05;;;;;;;25.00;10.80;;;;;;;12.93;100.00;98956.63;4985573;28;20092;-58
2022/11/22 01:03:31;;;;;;;24.23;10.30;;;;;;;13.57;100.00;98952.19;4987761;28;20125;-57
2022/11/22 01:05:57;;;;;;;27.00;10.33;;;;;;;12.87;100.00;98960.31;4979094;28;20041;-59
2022/11/22 01:08:22;;;;;;;20.67;9.90;;;;;;;12.81;100.00;98953.31;4986906;28;20035;-59
2022/11/22 01:10:53;;;;;;;24.17;10.37;;;;;;;12.70;100.00;98952.41;4987134;28;20054;-59
2022/11/22 01:13:19;;;;;;;27.55;10.30;;;;;;;12.76;100.00;98957.56;4991443;28;20042;-59
2022/11/22 01:15:45;;;;;;;24.33;9.47;;;;;;;13.09;100.00;98957.53;4985063;28;20053;-59
2022/11/22 01:18:10;;;;;;;23.67;9.47;;;;;;;12.86;100.00;98950.66;4986219;28;20035;-60
2022/11/22 01:20:36;;;;;;;33.97;10.87;;;;;;;12.21;100.00;98948.75;4991305;28;20297;-60
2022/11/22 01:23:01;;;;;;;17.43;6.90;;;;;;;12.47;100.00;98952.50;4989319;28;20035;-60
2022/11/22 01:25:27;;;;;;;30.38;9.60;;;;;;;12.63;100.00;98939.22;5013956;28;20102;-60
2022/11/22 01:27:52;;;;;;;26.23;8.53;;;;;;;12.45;100.00;98945.75;4988703;28;20049;-60
2022/11/22 01:30:18;;;;;;;25.80;8.90;;;;;;;12.24;100.00;98952.81;4992976;28;20043;-60
2022/11/22 01:32:43;;;;;;;20.92;9.00;;;;;;;12.30;100.00;98954.47;4991020;28;20110;-60
2022/11/22 01:35:09;;;;;;;21.77;8.23;;;;;;;12.21;100.00;98951.44;4992620;28;20026;-58
2022/11/22 01:37:36;;;;;;;23.47;8.97;;;;;;;12.82;100.00;98954.91;4989249;28;20039;-59
2022/11/22 01:40:02;;;;;;;37.80;13.07;;;;;;;12.48;100.00;98951.44;4992624;28;20038;-60
2022/11/22 01:42:49;;;;;;;18.33;8.20;;;;;;;12.75;100.00;98958.63;5001901;28;20038;-59
2022/11/22 01:45:30;;;;;;;19.02;7.38;;;;;;;12.18;100.00;98954.63;4990572;28;20272;-60
2022/11/22 01:48:11;;;;;;;21.83;7.72;;;;;;;11.07;100.00;98958.03;4993340;28;20038;-58
2022/11/22 01:50:40;;;;;;;20.42;7.80;;;;;;;11.19;100.00;98960.63;4988473;28;20046;-58
2022/11/22 01:53:11;;;;;;;22.73;7.75;;;;;;;12.73;100.00;98954.56;4988790;28;20066;-60
2022/11/22 01:55:38;;;;;;;15.35;6.57;;;;;;;12.08;100.00;98955.31;4991749;28;20168;-57
2022/11/22 01:58:04;;;;;;;17.50;6.10;;;;;;;12.29;100.00;98968.94;4974151;28;20042;-60
2022/11/22 02:00:29;;;;;;;23.37;7.53;;;;;;;12.47;100.00;98973.94;5001487;28;20083;-60
2022/11/22 02:02:57;;;;;;;27.15;7.72;;;;;;;10.68;100.00;98966.78;4994573;28;20042;-61
2022/11/22 02:05:27;;;;;;;21.50;6.28;;;;;;;10.51;100.00;98963.28;4991943;28;20126;-60
2022/11/22 02:08:32;;;;;;;29.67;8.13;;;;;;;11.04;100.00;98975.38;4999331;28;20030;-60
2022/11/22 02:11:01;;;;;;;19.13;6.80;;;;;;;11.45;100.00;98975.16;4980261;28;20073;-61
2022/11/22 02:13:29;;;;;;;18.75;6.63;;;;;;;10.84;100.00;98981.22;4986469;28;20038;-60
2022/11/22 02:15:55;;;;;;;24.17;6.00;;;;;;;10.72;100.00;98981.28;4990520;28;20039;-60
2022/11/22 02:18:20;;;;;;;20.77;6.28;;;;;;;10.88;100.00;98990.38;4975846;28;20050;-60
2022/11/22 02:20:46;;;;;;;14.02;5.72;;;;;;;12.32;100.00;98981.84;4988947;28;20043;-60
2022/11/22 02:23:43;;;;;;;22.23;6.10;;;;;;;12.02;100.00;98996.53;4988726;28;20031;-59
2022/11/22 02:26:08;;;;;;;23.98;6.10;;;;;;;12.33;100.00;98986.91;4989960;28;20030;-60
2022/11/22 02:28:38;;;;;;;19.17;5.43;;;;;;;12.52;100.00;98986.56;5005379;28;20038;-60
2022/11/22 02:31:04;;;;;;;28.80;6.97;;;;;;;12.16;100.00;98981.66;4967268;28;20062;-59
2022/11/22 02:33:30;;;;;;;24.42;5.88;;;;;;;11.61;100.00;98994.91;4986666;28;20039;-61
2022/11/22 02:35:55;;;;;;;28.23;6.03;;;;;;;11.32;100.00;98994.25;4993746;28;20037;-60
2022/11/22 02:38:25;;;;;;;25.15;5.63;;;;;;;11.21;100.00;98992.47;4993480;28;20034;-58
2022/11/22 02:41:05;;;;;;;35.50;6.40;;;;;;;11.21;100.00;98995.16;4991640;28;20414;-59
2022/11/22 02:43:35;;;;;;;18.92;4.90;;;;;;;12.05;100.00;98985.31;4988320;28;20038;-61
2022/11/22 02:46:05;;;;;;;22.33;5.95;;;;;;;11.11;100.00;98985.91;4993304;28;20106;-59
2022/11/22 02:48:31;;;;;;;13.38;5.13;;;;;;;11.66;100.00;98980.78;4989978;28;20120;-60
2022/11/22 02:50:57;;;;;;;15.27;4.72;;;;;;;11.13;100.00;98983.00;4989147;28;20034;-59
2022/11/22 02:53:22;;;;;;;35.03;5.28;;;;;;;10.74;100.00;98975.72;4986839;28;20110;-59
2022/11/22 02:55:48;;;;;;;22.60;4.83;;;;;;;11.22;100.00;98980.72;4990751;28;20046;-60
2022/11/22 02:58:13;;;;;;;30.93;5.10;;;;;;;11.63;100.00;98975.91;4991366;28;20054;-59
2022/11/22 03:00:39;;;;;;;26.10;5.67;;;;;;;10.14;100.00;98980.50;4984320;28;20268;-61
2022/11/22 03:03:05;;;;;;;28.90;5.17;;;;;;;11.23;100.00;98985.03;4992511;28;20041;-59
2022/11/22 03:05:40;;;;;;;23.10;4.87;;;;;;;10.08;100.00;98982.25;4988820;28;20289;-58
2022/11/22 03:08:12;;;;;;;25.63;3.90;;;;;;;11.25;100.00;98999.75;4978891;28;20033;-59
2022/11/22 03:10:38;;;;;;;31.55;4.45;;;;;;;11.10;100.00;99002.22;4988577;28;20043;-58
2022/11/22 03:13:04;;;;;;;17.67;3.83;;;;;;;11.24;100.00;99014.19;4988230;28;20042;-59
2022/11/22 03:15:29;;;;;;;24.80;4.20;;;;;;;11.64;100.00;99008.88;4984621;28;20051;-57
2022/11/22 03:18:00;;;;;;;25.67;3.60;;;;;;;10.48;100.00;99004.66;4982414;28;20041;-60
2022/11/22 03:20:26;;;;;;;22.98;3.80;;;;;;;10.89;100.00;98999.22;4981995;28;20042;-60
2022/11/22 03:22:52;;;;;;;18.73;3.85;;;;;;;11.13;100.00;99005.19;4986672;28;20039;-61
2022/11/22 03:25:18;;;;;;;20.30;5.07;;;;;;;11.53;100.00;99008.72;4984111;28;20026;-60
2022/11/22 03:27:43;;;;;;;13.90;3.70;;;;;;;11.26;100.00;99009.41;4990140;28;20046;-59
2022/11/22 03:30:09;;;;;;;32.60;3.90;;;;;;;11.17;100.00;99030.41;4992653;28;20288;-61
2022/11/22 03:32:35;;;;;;;;;;;;;;;10.86;100.00;99018.44;4993492;28;20030;-58
2022/11/22 03:35:00;;;;;;;26.57;3.53;;;;;;;10.12;100.00;99025.34;4990598;28;19936;-59
2022/11/22 03:37:26;;;;;;;27.47;5.03;;;;;;;11.11;100.00;99017.22;4991069;28;20041;-58
2022/11/22 03:39:54;;;;;;;20.02;3.55;;;;;;;11.06;100.00;99020.63;4990947;28;20031;-60
2022/11/22 03:42:19;;;;;;;;;;;;;;;9.81;100.00;99033.53;4989490;28;20054;-56
2022/11/22 03:44:45;;;;;;;13.23;2.80;;;;;;;10.21;100.00;99018.56;4990974;28;19914;-59
2022/11/22 03:47:10;;;;;;;16.00;4.20;;;;;;;10.47;100.00;99035.94;4992688;28;20027;-58
2022/11/22 03:49:36;;;;;;;17.88;3.50;;;;;;;10.54;100.00;99030.44;4990692;28;20031;-60
2022/11/22 03:52:01;;;;;;;30.17;3.77;;;;;;;10.85;100.00;99046.22;4990803;28;20038;-60
2022/11/22 03:54:27;;;;;;;21.17;3.67;;;;;;;10.25;100.00;99043.75;4986939;28;20106;-60
2022/11/22 03:56:52;;;;;;;14.43;3.30;;;;;;;10.07;100.00;99041.28;4989711;28;20283;-58
2022/11/22 03:59:18;;;;;;;13.48;2.70;;;;;;;10.59;100.00;99030.53;4992320;28;20296;-59
2022/11/22 04:01:44;;;;;;;25.70;3.53;;;;;;;9.77;100.00;99040.41;4992646;28;20054;-60
2022/11/22 04:04:11;;;;;;;18.80;4.77;;;;;;;9.45;100.00;99046.06;4990809;28;20057;-59
2022/11/22 04:06:37;;;;;;;18.77;3.10;;;;;;;10.53;100.00;99046.72;4984027;28;20277;-60
2022/11/22 04:09:03;;;;;;;25.58;3.70;;;;;;;9.71;100.00;99052.00;4999915;28;20038;-59
2022/11/22 04:11:29;;;;;;;22.25;4.15;;;;;;;10.99;100.00;99036.81;4992368;28;20034;-60
2022/11/22 04:16:39;;;;;;;16.90;3.40;;;;;;;9.81;100.00;99044.22;4989929;28;20031;-60
2022/11/22 04:19:05;;;;;;;14.97;3.20;;;;;;;9.49;100.00;99046.44;4992297;28;20042;-59
2022/11/22 04:21:33;;;;;;;10.87;2.67;;;;;;;10.80;100.00;99048.78;4990932;28;20090;-60
2022/11/22 04:26:52;;;;;;;10.65;2.60;;;;;;;10.71;100.00;99041.16;4990451;28;20039;-59
2022/11/22 04:29:18;;;;;;;11.35;3.25;;;;;;;11.12;100.00;99043.72;4978961;28;20023;-60
2022/11/22 04:34:30;;;;;;;27.33;3.45;;;;;;;9.31;100.00;99050.84;4985191;28;20042;-59
2022/11/22 04:36:57;;;;;;;19.52;3.80;;;;;;;9.26;100.00;99059.53;4991895;28;20121;-59
2022/11/22 04:39:22;;;;;;;19.87;3.33;;;;;;;8.68;100.00;99063.72;4991901;28;20046;-58
2022/11/22 04:44:39;;;;;;;26.00;4.30;;;;;;;10.56;100.00;99059.59;4985372;28;20026;-59
2022/11/22 04:44:41;;;;;;;17.90;4.32;;;;;;;10.37;100.00;99065.09;4985026;28;20277;-59
2022/11/22 04:47:08;;;;;;;18.98;3.17;;;;;;;9.56;100.00;99063.13;4976912;28;20067;-59
2022/11/22 04:49:34;;;;;;;18.88;3.60;;;;;;;9.00;100.00;99072.25;4988772;28;20060;-57
2022/11/22 04:54:45;;;;;;;20.83;3.10;;;;;;;10.65;100.00;99062.69;4986418;28;20078;-57
2022/11/22 04:57:11;;;;;;;22.37;4.03;;;;;;;9.07;100.00;99066.81;4972000;28;20035;-57
2022/11/22 04:59:36;;;;;;;23.60;3.05;;;;;;;9.78;100.00;99075.88;4986377;28;20031;-58
2022/11/22 05:02:02;;;;;;;21.57;3.00;;;;;;;9.97;100.00;99068.56;4984260;28;20043;-59
2022/11/22 05:04:27;;;;;;;14.47;3.97;;;;;;;10.23;100.00;99071.78;5001747;28;20066;-59
2022/11/22 05:06:55;;;;;;;18.08;2.95;;;;;;;9.83;100.00;99057.34;4989052;28;20038;-59
2022/11/22 05:09:20;;;;;;;21.90;4.57;;;;;;;10.71;100.00;99064.41;4988521;28;20060;-58
2022/11/22 05:11:46;;;;;;;13.63;4.00;;;;;;;10.26;100.00;99071.28;4990464;28;20039;-57
2022/11/22 05:14:11;;;;;;;18.73;3.03;;;;;;;10.61;100.00;99070.41;4989022;28;20277;-62
2022/11/22 05:16:37;;;;;;;19.40;3.10;;;;;;;10.49;100.00;99086.44;4990226;28;20072;-59
2022/11/22 05:19:02;;;;;;;20.30;2.63;;;;;;;10.34;100.00;99084.28;4988101;28;20046;-60
2022/11/22 05:21:29;;;;;;;31.03;4.33;;;;;;;10.27;100.00;99088.94;4987479;28;20288;-60
2022/11/22 05:23:55;;;;;;;23.88;3.80;;;;;;;9.39;100.00;99079.03;4989093;28;20027;-59
2022/11/22 05:26:25;;;;;;;14.60;2.97;;;;;;;8.41;100.00;99080.00;4986911;28;20035;-58
2022/11/22 05:28:51;;;;;;;12.30;2.63;;;;;;;8.61;100.00;99080.56;4988426;28;20126;-59
2022/11/22 05:31:22;;;;;;;27.17;6.45;;;;;;;8.84;100.00;99078.25;4988501;28;20034;-55
2022/11/22 05:33:53;;;;;;;25.52;3.60;;;;;;;8.45;100.00;99076.66;4989202;28;20042;-60
2022/11/22 05:36:20;;;;;;;17.58;3.28;;;;;;;9.21;100.00;99093.28;4989170;28;20066;-59
2022/11/22 05:38:46;;;;;;;20.05;2.97;;;;;;;8.61;100.00;99087.78;4995273;28;20046;-59
2022/11/22 05:41:13;;;;;;;15.80;2.92;;;;;;;9.06;100.00;99093.72;4988203;28;20118;-59
2022/11/22 05:43:39;;;;;;;10.38;2.55;;;;;;;8.67;100.00;99086.06;4987202;28;20074;-59
2022/11/22 05:46:17;;;;;;;21.27;3.22;;;;;;;8.84;100.00;99089.69;5005692;28;20041;-59
2022/11/22 05:48:44;;;;;;;20.58;3.15;;;;;;;8.60;100.00;99078.16;4988333;28;20031;-58
2022/11/22 05:51:14;;;;;;;27.80;3.70;;;;;;;8.46;100.00;99080.16;4990333;28;20038;-59
2022/11/22 05:53:42;;;;;;;20.40;3.60;;;;;;;9.28;100.00;99083.31;5007785;28;20039;-60
2022/11/22 05:56:16;;;;;;;24.30;4.43;;;;;;;8.73;100.00;99083.28;4987947;28;20056;-59
2022/11/22 05:58:42;;;;;;;17.30;4.13;;;;;;;9.06;100.00;99085.72;4996514;28;20047;-59
2022/11/22 06:01:16;;;;;;;21.27;4.35;;;;;;;10.65;100.00;99082.25;5004140;28;20039;-60
2022/11/22 06:03:42;;;;;;;15.82;2.90;;;;;;;8.84;100.00;99088.91;4987392;28;20034;-59
2022/11/22 06:06:08;;;;;;;16.33;3.75;;;;;;;8.98;100.00;99089.53;4997327;28;20027;-59
2022/11/22 06:08:37;;;;;;;16.73;2.93;;;;;;;10.06;100.00;99077.84;4992321;28;20039;-59
2022/11/22 06:11:04;;;;;;;13.60;3.28;;;;;;;10.25;100.00;99080.34;4990605;28;20039;-59
2022/11/22 06:13:38;;;;;;;16.63;3.00;;;;;;;9.67;100.00;99090.88;4988690;28;20038;-57
2022/11/22 06:16:06;;;;;;;17.80;3.67;;;;;;;10.41;100.00;99073.47;4990722;28;20110;-59
2022/11/22 06:18:32;;;;;;;18.30;3.42;;;;;;;11.09;100.00;99091.56;4993618;28;20031;-58
2022/11/22 06:20:59;;;;;;;20.85;2.85;;;;;;;9.23;100.00;99097.34;4992673;28;20068;-59
2022/11/22 06:23:25;;;;;;;20.63;3.55;;;;;;;8.90;100.00;99093.31;4991268;28;20050;-57
2022/11/22 06:25:58;;;;;;;;;;;;;;;9.36;100.00;99100.84;4991955;28;20026;-57
2022/11/22 06:28:24;;;;;;;19.88;4.45;;;;;;;9.38;100.00;99093.41;4990175;28;19921;-59
2022/11/22 06:30:50;;;;;;;22.83;3.75;;;;;;;10.06;100.00;99096.53;4991762;28;20038;-57
2022/11/22 06:33:15;;;;;;;19.93;3.03;;;;;;;9.33;100.00;99086.09;4997581;28;20037;-58
2022/11/22 06:35:40;;;;;;;25.60;3.83;;;;;;;10.03;100.00;99094.34;4991836;28;20039;-59
2022/11/22 06:38:06;;;;;;;22.23;3.13;;;;;;;9.24;100.00;99093.66;4997840;28;20076;-58
2022/11/22 06:40:32;;;;;;;16.77;3.43;;;;;;;9.27;100.00;99092.34;4989901;28;20047;-58
2022/11/22 06:42:57;;;;;;;11.90;3.20;;;;;;;8.61;100.00;99096.56;4991482;28;20035;-59
2022/11/22 06:45:23;;;;;;;27.65;4.80;;;;;;;9.48;100.00;99083.00;4989951;28;20045;-58
2022/11/22 06:47:48;;;;;;;23.10;3.63;;;;;;;9.07;100.00;99087.34;4984548;28;20042;-59
2022/11/22 06:50:15;;;;;;;13.98;3.08;;;;;;;9.15;100.00;99084.34;4991631;28;20031;-57
2022/11/22 06:52:40;;;;;;;26.23;3.53;;;;;;;9.30;100.00;99091.88;4989015;28;20039;-59
2022/11/22 06:55:06;;;;;;;16.13;3.77;;;;;;;9.05;100.00;99103.56;4989651;28;20288;-60
2022/11/22 06:57:31;;;;;;;14.13;3.17;;;;;;;9.98;100.00;99102.25;4989610;28;20098;-59
2022/11/22 06:59:56;;;;;;;13.43;4.80;;;;;;;9.86;100.00;99111.06;4988861;28;20031;-60
2022/11/22 07:02:22;;;;;;;11.52;3.15;;;;;;;9.51;100.00;99124.41;4991828;28;20064;-58
2022/11/22 07:04:47;;;;;;;22.23;3.80;;;;;;;9.81;100.00;99108.28;4992747;28;20083;-57
2022/11/22 07:07:13;;;;;;;21.65;4.53;;;;;;;9.18;100.00;99115.88;4992702;28;20038;-59
2022/11/22 07:09:38;;;;;;;21.27;3.70;;;;;;;11.38;100.00;99100.31;5016880;28;20038;-59
2022/11/22 07:12:04;;;;;;;14.40;5.05;;;;;;;9.14;100.00;99138.72;4990861;28;20061;-58
2022/11/22 07:14:30;;;;;;;19.77;3.77;;;;;;;10.01;100.00;99120.47;4991111;28;20058;-59
2022/11/22 07:16:57;;;;;;;15.15;3.60;;;;;;;8.88;100.00;99117.56;4990409;28;20352;-58
2022/11/22 07:19:23;;;;;;;21.40;3.50;;;;;;;10.03;100.00;99121.03;4989570;28;20106;-60
2022/11/22 07:21:48;;;;;;;20.88;3.78;;;;;;;10.31;100.00;99114.13;4989609;28;20042;-60
2022/11/22 07:24:14;;;;;;;12.30;2.83;;;;;;;10.05;100.00;99121.63;4988474;28;20054;-60
2022/11/22 07:26:39;;;;;;;17.37;3.40;;;;;;;10.09;100.00;99130.00;4989323;28;20102;-59
2022/11/22 07:29:05;;;;;;;15.47;2.93;;;;;;;10.49;100.00;99117.72;4989535;28;20277;-60
2022/11/22 07:31:31;;;;;;;16.23;4.50;;;;;;;9.78;100.00;99130.13;4989864;28;20039;-59
2022/11/22 07:33:57;;;;;;;22.80;3.83;;;;;;;10.10;100.00;99127.06;4999953;28;20053;-58
2022/11/22 07:36:23;;;;;;;26.08;4.93;;;;;;;9.92;100.00;99124.53;4991569;28;20035;-59
2022/11/22 07:38:49;;;;;;;20.30;4.18;;;;;;;9.83;100.00;99124.88;4987149;28;20027;-58
2022/11/22 07:41:16;;;;;;;18.20;3.60;;;;;;;10.45;100.00;99128.06;4991335;28;20034;-58
2022/11/22 07:43:41;;;;;;;;;;;;;;;10.10;100.00;99137.75;5000850;28;20039;-60
2022/11/22 07:46:23;;;;;;;13.60;4.00;;;;;;;10.84;100.00;99143.50;4988416;28;19973;-59
2022/11/22 07:48:49;;;;;;;14.27;3.78;;;;;;;10.75;100.00;99151.94;4986601;28;20289;-60
2022/11/22 07:51:15;;;;;;;12.55;3.53;;;;;;;9.49;100.00;99140.66;4990056;28;20090;-59
2022/11/22 07:53:40;;;;;;;17.33;3.50;;;;;;;10.15;100.00;99148.56;4986544;28;20061;-58
2022/11/22 07:56:06;;;;;;;20.90;3.85;;;;;;;10.00;100.00;99142.88;4994460;28;20070;-57
2022/11/22 07:58:33;;;;;;;12.03;3.83;;;;;;;10.63;100.00;99139.66;4987591;28;20106;-59
2022/11/22 08:01:25;;;;;;;13.70;3.80;;;;;;;10.22;100.00;99144.94;4985309;28;20046;-59
2022/11/22 08:03:50;;;;;;;10.30;2.83;;;;;;;10.30;100.00;99136.56;4984633;28;20073;-59
2022/11/22 08:06:15;;;;;;;15.30;3.30;;;;;;;10.24;100.00;99146.31;4987721;28;20035;-59
2022/11/22 08:08:41;;;;;;;13.50;3.28;;;;;;;9.81;100.00;99145.66;4990852;28;20035;-57
2022/11/22 08:11:08;;;;;;;10.63;2.70;;;;;;;10.14;100.00;99130.88;4988881;28;20069;-59
2022/11/22 08:13:35;;;;;;;12.82;3.05;;;;;;;10.44;100.00;99129.94;4984846;28;20110;-59
2022/11/22 08:16:06;;;;;;;10.75;2.92;;;;;;;9.08;100.00;99132.44;4982864;28;20035;-57
2022/11/22 08:18:34;;;;;;;11.95;3.45;;;;;;;9.96;100.00;99136.38;4985795;28;20024;-58
2022/11/22 08:21:04;;;;;;;20.08;4.65;;;;;;;10.06;100.00;99141.16;4991640;28;20050;-60
2022/11/22 08:23:29;;;;;;;16.08;3.47;;;;;;;9.87;100.00;99139.38;4987573;28;20043;-58
2022/11/22 08:25:57;;;;;;;16.63;3.47;;;;;;;10.09;100.00;99144.13;4987391;28;20034;-58
2022/11/22 08:28:23;;;;;;;13.50;2.92;;;;;;;9.85;100.00;99152.16;4984130;28;20033;-58
2022/11/22 08:30:49;;;;;;;8.77;2.93;;;;;;;9.99;100.00;99157.28;5000590;28;20058;-59
2022/11/22 08:33:14;;;;;;;14.17;3.20;;;;;;;10.88;100.00;99155.38;4988734;28;20050;-58
2022/11/22 08:35:39;;;;;;;13.97;3.07;;;;;;;11.71;100.00;99138.03;4984344;28;20311;-59
2022/11/22 08:38:05;;;;;;;10.10;2.47;;;;;;;11.70;100.00;99147.94;4988158;28;20122;-58
2022/11/22 08:40:31;;;;;;;13.27;3.28;;;;;;;10.35;100.00;99152.69;4986774;28;20060;-58
2022/11/22 08:42:56;;;;;;;9.97;2.57;;;;;;;9.21;100.00;99152.75;4983204;28;20039;-59
2022/11/22 08:45:22;;;;;;;12.40;3.10;;;;;;;9.60;100.00;99153.19;4984955;28;20069;-59
2022/11/22 08:47:48;;;;;;;11.50;2.90;;;;;;;10.44;100.00;99153.19;4989274;28;20377;-60
2022/11/22 08:50:14;;;;;;;14.70;2.37;;;;;;;9.67;100.00;99163.75;4986860;28;20042;-60
2022/11/22 08:52:39;;;;;;;10.20;2.50;;;;;;;10.48;100.00;99173.03;4984549;28;20034;-59
2022/11/22 08:55:05;;;;;;;11.45;2.90;;;;;;;10.61;100.00;99170.09;4985280;28;20069;-57
2022/11/22 08:57:31;;;;;;;10.45;3.20;;;;;;;9.96;100.00;99177.25;4989629;28;20046;-58
2022/11/22 08:59:56;;;;;;;15.67;3.20;;;;;;;9.47;100.00;99177.44;4984186;28;20035;-58
2022/11/22 09:02:22;;;;;;;14.93;3.50;;;;;;;11.28;100.00;99180.44;4986820;28;20041;-57
2022/11/22 09:04:47;;;;;;;18.40;2.83;;;;;;;10.30;100.00;99182.81;4984849;28;20061;-60
2022/11/22 09:07:12;;;;;;;9.47;2.60;;;;;;;9.86;100.00;99175.16;4972580;28;20061;-60
2022/11/22 09:09:38;;;;;;;9.13;2.83;;;;;;;10.70;100.00;99175.91;4986492;28;20050;-55
2022/11/22 09:12:04;;;;;;;7.45;2.63;;;;;;;11.55;100.00;99187.84;4984523;28;20046;-59
2022/11/22 09:14:30;;;;;;;7.97;3.05;;;;;;;9.81;100.00;99185.72;4983896;28;20112;-58
2022/11/22 09:16:56;;;;;;;8.13;2.90;;;;;;;9.77;100.00;99187.22;4993519;28;20089;-61
2022/11/22 09:19:21;;;;;;;13.03;3.47;;;;;;;10.60;100.00;99195.22;4985082;28;20037;-58
2022/11/22 09:21:46;;;;;;;10.10;2.97;;;;;;;10.13;100.00;99196.03;4957135;28;20035;-58
2022/11/22 09:24:12;;;;;;;8.93;2.40;;;;;;;10.69;100.00;99190.31;4988089;28;20042;-58
2022/11/22 09:26:38;;;;;;;14.23;2.97;;;;;;;11.98;100.00;99190.91;4981158;28;20103;-58
2022/11/22 09:29:03;;;;;;;13.83;2.63;;;;;;;10.65;100.00;99189.16;4985875;28;20276;-60
2022/11/22 09:31:30;;;;;;;11.93;2.40;;;;;;;10.60;100.00;99189.03;4986121;28;20061;-59
2022/11/22 09:33:55;;;;;;;7.72;2.95;;;;;;;10.97;100.00;99188.72;4983343;28;20035;-58
2022/11/22 09:36:25;;;;;;;6.87;2.97;;;;;;;10.69;100.00;99189.50;4985101;28;20099;-57
2022/11/22 09:38:51;;;;;;;13.68;2.90;;;;;;;9.97;100.00;99196.75;4985554;28;20034;-57
2022/11/22 09:41:59;;;;;;;9.40;2.78;;;;;;;12.56;100.00;99196.84;4994867;28;20058;-58
2022/11/22 09:44:36;;;;;;;13.73;2.88;;;;;;;11.74;100.00;99199.13;4987545;28;20050;-59
2022/11/22 09:47:40;;;;;;;3.88;2.03;;;;;;;11.10;100.00;99202.88;4993640;28;20038;-59
2022/11/22 09:50:19;;;;;;;14.38;2.88;;;;;;;12.74;100.00;99195.72;4992060;28;20039;-60
2022/11/22 09:52:52;;;;;;;13.18;2.63;;;;;;;12.93;100.00;99187.38;4990780;28;20030;-59
2022/11/22 09:55:32;;;;;;;10.77;3.58;;;;;;;10.90;100.00;99188.06;4991173;28;20054;-58
2022/11/22 09:58:09;;;;;;;9.55;2.47;;;;;;;10.82;100.00;99185.72;4992273;28;20031;-59
2022/11/22 10:00:35;;;;;;;12.77;2.05;;;;;;;11.81;100.00;99190.94;4989423;28;20035;-58
2022/11/22 10:03:21;;;;;;;9.82;1.80;;;;;;;11.53;100.00;99192.63;4991438;28;20056;-60
2022/11/22 10:05:52;;;;;;;9.05;3.35;;;;;;;11.23;100.00;99194.53;4988103;28;20057;-57
2022/11/22 10:08:37;;;;;;;8.75;2.35;;;;;;;11.54;100.00;99191.56;4999446;28;20028;-57
2022/11/22 10:11:13;;;;;;;11.70;2.88;;;;;;;11.42;100.00;99215.75;4991581;28;20042;-59
2022/11/22 10:13:50;;;;;;;11.60;2.30;;;;;;;10.94;100.00;99209.75;4999139;28;20097;-58
2022/11/22 10:16:23;;;;;;;16.20;2.67;;;;;;;12.16;100.00;99206.75;4984595;28;20051;-59
2022/11/22 10:18:58;;;;;;;5.72;2.50;;;;;;;11.86;100.00;99191.84;4987807;28;20038;-58
2022/11/22 10:21:25;;;;;;;5.55;2.20;;;;;;;12.29;100.00;99194.09;4987482;28;20046;-58
2022/11/22 10:23:50;;;;;;;8.57;2.58;;;;;;;11.28;100.00;99183.13;4991301;28;20031;-58
2022/11/22 10:26:26;;;;;;;7.20;2.30;;;;;;;11.95;100.00;99180.69;4987077;28;20035;-58
2022/11/22 10:29:03;;;;;;;11.15;2.30;;;;;;;11.54;100.00;99179.03;4982763;28;20042;-59
2022/11/22 10:31:40;;;;;;;;;;;;;;;11.80;100.00;99189.31;4990855;28;20043;-57
2022/11/22 10:34:24;;;;;;;9.68;2.25;;;;;;;10.96;100.00;99188.97;4989668;28;19951;-61
2022/11/22 10:37:04;;;;;;;11.20;2.30;;;;;;;11.86;100.00;99189.16;4991468;28;20042;-58
2022/11/22 10:39:40;;;;;;;9.73;2.08;;;;;;;12.08;100.00;99175.03;4993567;28;20037;-59
2022/11/22 10:42:32;;;;;;;7.13;2.28;;;;;;;11.05;100.00;99185.66;4989247;28;20042;-59
2022/11/22 10:45:23;;;;;;;13.00;3.50;;;;;;;11.69;100.00;99182.97;4990482;28;20026;-58
2022/11/22 10:48:08;;;;;;;5.85;1.73;;;;;;;11.13;100.00;99171.06;4988653;28;20045;-58
2022/11/22 10:51:04;;;;;;;8.20;1.65;;;;;;;12.01;100.00;99171.72;4988659;28;20031;-59
2022/11/22 10:53:55;;;;;;;6.00;1.70;;;;;;;11.57;100.00;99169.66;4990194;28;20110;-59
2022/11/22 10:56:45;;;;;;;5.90;1.50;;;;;;;11.46;100.00;99163.34;4990295;28;20063;-59
2022/11/22 10:59:24;;;;;;;3.97;1.63;;;;;;;11.30;100.00;99152.41;4989298;28;20034;-60
2022/11/22 11:02:00;;;;;;;7.47;2.58;;;;;;;11.54;100.00;99154.91;4987618;28;20269;-59
2022/11/22 11:04:36;;;;;;;8.02;2.20;;;;;;;11.71;100.00;99164.81;4986723;28;20027;-60
2022/11/22 11:07:04;;;;;;;6.57;1.90;;;;;;;11.80;100.00;99158.00;4988697;28;20038;-58
2022/11/22 11:09:41;;;;;;;7.55;2.03;;;;;;;11.95;100.00;99145.88;4989288;28;20046;-59
2022/11/22 11:12:27;;;;;;;5.80;1.87;;;;;;;12.28;100.00;99153.06;4990251;28;20134;-58
2022/11/22 11:15:03;;;;;;;9.27;2.00;;;;;;;11.88;100.00;99154.09;4991325;28;20281;-61
2022/11/22 11:17:34;;;;;;;6.65;1.60;;;;;;;12.08;100.00;99153.59;4987878;28;20047;-58
2022/11/22 11:20:09;;;;;;;8.03;1.93;;;;;;;12.01;100.00;99152.97;4990225;28;20023;-59
2022/11/22 11:22:35;;;;;;;5.63;1.97;;;;;;;11.89;100.00;99148.47;4989175;28;20281;-60
2022/11/22 11:25:28;;;;;;;5.10;2.10;;;;;;;12.76;100.00;99137.28;4988982;28;20311;-60
2022/11/22 11:27:58;;;;;;;6.17;1.40;;;;;;;12.40;100.00;99144.09;4990639;28;20035;-59
2022/11/22 11:30:23;;;;;;;8.57;1.63;;;;;;;12.38;100.00;99152.38;4986862;28;20283;-61
2022/11/22 11:32:51;;;;;;;3.83;1.87;;;;;;;12.73;100.00;99143.16;5023594;28;20107;-60
2022/11/22 11:35:19;;;;;;;5.15;1.80;;;;;;;12.70;100.00;99137.47;4986932;28;20058;-57
2022/11/22 11:37:45;;;;;;;3.38;2.08;;;;;;;12.65;100.00;99135.53;4991223;28;20054;-57
2022/11/22 11:40:31;;;;;;;5.13;1.70;;;;;;;12.62;100.00;99136.84;4989696;28;20042;-59